LROPLRAR

Guest
Details From LROP - Bucarest Otopeni Intl
To LRAR - Arad
Flight Number -
Tags Decoded
Created
Modified
Stats Distance 225 nm / 418 km
Max Altitude 0 ft / 0 m
Waypoints 2
Social Downloads 1
Likes 0
Share VATSIM

Download

Looking for another format? Having issues loading an existing format? Contact us
Advertisement - Login to hide

Notes

Decoded

Route

LROP LRAR

ID Type Via Altitude Latitude Longitude Leg Dist Tot Dist Heading (true) Name
O LROP APT - 0 ft / 0 m 44.57648˚ 26.08393˚ - 0 nm - -
O LRAR APT - 0 ft / 0 m 46.17737˚ 21.24921˚ 225 nm 225 nm 297° / 294° -

Altitude Profile

Advertisement - Login to hide

Weather


0- 5 10 15 20 25 30 35+ Temperature / ° C

Clouds and Precipitation
Forecast for 2017-12-19 00:00 UTC. Updated 2 hours ago

Ground ~20,000 ft ~40,000 ft Winds

LROP

Details ICAO LROP (OTP)
Name Bucarest Otopeni Intl
Region Romania
Timezone Europe/Bucharest (UTC+2.0)
Stats Elevation 314 ft / 96 m (AMSL)
Location 44.572161° 26.102177°
Runways 2
Magnetic Variation 5.607° E

METAR

LROP 182300Z 05003KT 360V070 4500 BR BKN004 OVC008 02/01 Q1021 R88/29//95 NOSIG

Decode

TAF

TAF LROP 181700Z 1818/1918 VRB04KT 3000 BR BKN005 OVC015 TEMPO 1818/1819 1500 BR BKN002 OVC010 TEMPO 1819/1821 1500 -RASN BR BKN002 OVC010 TEMPO 1821/1904 1500 SN BR BKN002 OVC010 BECMG 1908/1910 9999 NSW SCT015 BKN035 BECMG 1914/1916 3000 BR BKN010

Decode

Departure Runways

ID Width Length Bearing (true) Bearing (mag) Surface Threshold Offset Overrun Length
08L 148 ft / 45 m 11,457 ft / 3,492 m 83.91° 78.30° Asphalt 500 ft / 152 m 0 ft / 0 m
08R 148 ft / 45 m 11,455 ft / 3,491 m 83.89° 78.28° Asphalt 450 ft / 137 m 0 ft / 0 m
26L 148 ft / 45 m 11,455 ft / 3,491 m 263.92° 258.31° Asphalt 450 ft / 137 m 0 ft / 0 m
26R 148 ft / 45 m 11,457 ft / 3,492 m 263.94° 258.33° Asphalt 500 ft / 152 m 0 ft / 0 m

LRAR

Details ICAO LRAR (ARW)
Name ARAD
Region Romania
Timezone Europe/Bucharest (UTC+2.0)
Stats Elevation 352 ft / 107 m (AMSL)
Location 46.176552° 21.262023°
Runways 1
Magnetic Variation 5.006° E

METAR

LRAR 182300Z AUTO 35005KT 8000 R09////// R27/P2000 NCD 01/M01 Q1024

Decode

TAF

Not found

Destination Runways

ID Width Length Bearing (true) Bearing (mag) Surface Threshold Offset Overrun Length
09 148 ft / 45 m 6,505 ft / 1,983 m 95.29° 90.28° Concrete 0 ft / 0 m 0 ft / 0 m
27 148 ft / 45 m 6,505 ft / 1,983 m 275.31° 270.30° Concrete 0 ft / 0 m 0 ft / 0 m

Approach Navaids

Runway Type Ident Frequency Range Bearing (true) Bearing (mag) Slope Elevation
09 Localiser IAR 109.90 MHz 18 nm / 33 km 95.30° 90.30° - 347 ft / 106 m (AMSL)
09 Glidescope IAR 109.90 MHz 10 nm / 19 km 95.30° 90.30° 2.50° 347 ft / 106 m (AMSL)
27 Localiser IAD 110.70 MHz 18 nm / 33 km 276.53° 271.53° - 347 ft / 106 m (AMSL)
27 Glidescope IAD 110.70 MHz 10 nm / 19 km 275.30° 270.30° 3.00° 347 ft / 106 m (AMSL)
27 DME IAD 110.70 MHz 18 nm / 33 km - - - 360 ft / 110 m (AMSL)

Popular Alternatives